Time;durP1;ratioP1;P1;durP2;ratioP2;P2;SDS_P1;SDS_P2;PMS_P1;PMS_P2;Temp;Humidity;BMP_temperature;BMP_pressure;BME280_temperature;BME280_humidity;BME280_pressure;Samples;Min_cycle;Max_cycle;Signal;HPM_P1;HPM_P2
2022/05/12 03:51:31;;;;;;;8.45;1.45;;;17.20;64.70;;;;;;4916215;23;20057;-72
2022/05/12 03:53:57;;;;;;;6.38;1.15;;;17.20;65.40;;;;;;4911903;29;20369;-72
2022/05/12 03:56:28;;;;;;;6.93;1.10;;;17.20;65.20;;;;;;4916394;29;20110;-75
2022/05/12 03:58:54;;;;;;;5.60;1.20;;;17.30;65.70;;;;;;4908787;29;20048;-74
2022/05/12 04:01:19;;;;;;;8.25;1.73;;;17.30;66.30;;;;;;4918618;29;20059;-78
2022/05/12 04:03:45;;;;;;;3.17;0.77;;;17.40;65.60;;;;;;4915330;29;20048;-75
2022/05/12 04:06:11;;;;;;;2.92;0.60;;;17.40;64.90;;;;;;4918452;29;20052;-74
2022/05/12 04:08:37;;;;;;;7.20;1.00;;;17.50;64.60;;;;;;4917178;29;20157;-74
2022/05/12 04:11:07;;;;;;;3.75;0.60;;;17.50;64.30;;;;;;4918235;29;20083;-74
2022/05/12 04:13:33;;;;;;;4.57;0.57;;;17.60;64.20;;;;;;4917021;29;20056;-73
2022/05/12 04:15:59;;;;;;;3.65;1.20;;;17.70;64.10;;;;;;4916714;29;20423;-81
2022/05/12 04:18:26;;;;;;;4.05;0.82;;;17.80;63.90;;;;;;4918183;29;20048;-75
2022/05/12 04:20:52;;;;;;;6.38;0.73;;;17.90;63.90;;;;;;4904950;29;20092;-77
2022/05/12 04:23:18;;;;;;;5.72;0.90;;;18.00;63.80;;;;;;4904385;29;20384;-77
2022/05/12 04:25:59;;;;;;;8.75;1.42;;;18.10;63.80;;;;;;4904559;29;20126;-82
2022/05/12 04:28:25;;;;;;;4.25;0.60;;;18.20;63.70;;;;;;4904130;29;20067;-78
2022/05/12 04:30:51;;;;;;;4.70;1.23;;;18.30;63.60;;;;;;4921059;29;20040;-72
2022/05/12 04:36:01;;;;;;;4.63;1.10;;;18.10;61.70;;;;;;4906492;29;20481;-76
2022/05/12 04:38:26;;;;;;;5.50;0.68;;;17.90;63.50;;;;;;4915702;29;20091;-73
2022/05/12 04:40:52;;;;;;;2.05;0.50;;;18.10;64.10;;;;;;4904219;29;20058;-79
2022/05/12 04:43:18;;;;;;;8.30;0.90;;;18.20;64.20;;;;;;4921128;29;20060;-75
2022/05/12 04:45:43;;;;;;;4.78;0.90;;;18.30;64.20;;;;;;4920899;29;20409;-73
2022/05/12 04:48:09;;;;;;;6.38;1.23;;;18.30;64.20;;;;;;4921280;29;20055;-73
2022/05/12 04:50:40;;;;;;;5.00;0.93;;;18.30;64.50;;;;;;4921424;29;20056;-79
2022/05/12 04:53:06;;;;;;;10.15;1.63;;;18.40;64.70;;;;;;4920437;29;20070;-77
2022/05/12 04:55:33;;;;;;;12.02;1.45;;;18.40;64.50;;;;;;4920397;29;20188;-73
2022/05/12 04:57:59;;;;;;;8.98;1.65;;;18.40;64.50;;;;;;4921312;29;20067;-77
2022/05/12 05:00:32;;;;;;;10.45;1.05;;;18.50;64.70;;;;;;4921964;29;20062;-74
2022/05/12 05:03:02;;;;;;;11.77;2.03;;;18.50;65.00;;;;;;4918396;29;20401;-75
2022/05/12 05:05:28;;;;;;;23.25;2.25;;;18.50;65.10;;;;;;4904687;29;20500;-77
2022/05/12 05:07:54;;;;;;;9.32;1.90;;;18.50;65.60;;;;;;4920955;29;20499;-79
2022/05/12 05:10:21;;;;;;;9.75;1.80;;;18.50;65.00;;;;;;4935896;29;20048;-75
2022/05/12 05:12:46;;;;;;;11.10;2.10;;;18.50;64.60;;;;;;4920528;29;20056;-77
2022/05/12 05:15:13;;;;;;;8.30;2.03;;;18.40;64.50;;;;;;4920290;29;20111;-76
2022/05/12 05:17:40;;;;;;;6.30;1.83;;;18.30;64.00;;;;;;4920087;29;20068;-75
2022/05/12 05:20:10;;;;;;;5.05;1.83;;;18.20;64.20;;;;;;4921013;29;20364;-76
2022/05/12 05:22:36;;;;;;;9.05;2.17;;;18.20;64.50;;;;;;4920682;29;20052;-76
2022/05/12 05:25:03;;;;;;;7.90;1.55;;;18.20;64.70;;;;;;4921189;29;20099;-72
2022/05/12 05:27:31;;;;;;;11.55;2.22;;;18.20;64.90;;;;;;4918484;29;20041;-75
2022/05/12 05:29:58;;;;;;;9.50;1.60;;;18.20;65.00;;;;;;4920275;29;20049;-75
2022/05/12 05:32:24;;;;;;;10.25;1.77;;;18.10;64.80;;;;;;4920708;29;20079;-77
2022/05/12 05:34:50;;;;;;;6.95;1.42;;;18.20;65.00;;;;;;4920320;29;20123;-76
2022/05/12 05:37:16;;;;;;;7.05;1.13;;;18.10;65.10;;;;;;4919163;29;20152;-76
2022/05/12 05:39:42;;;;;;;8.55;1.50;;;18.20;65.30;;;;;;4919764;29;20342;-76
2022/05/12 05:42:20;;;;;;;3.25;1.38;;;18.20;65.40;;;;;;4920166;29;20048;-77
2022/05/12 05:44:46;;;;;;;6.93;1.42;;;18.20;65.60;;;;;;4903786;29;20414;-75
2022/05/12 05:47:12;;;;;;;20.15;3.05;;;18.20;65.70;;;;;;4920159;29;20048;-72
2022/05/12 05:49:38;;;;;;;15.82;3.22;;;18.10;66.20;;;;;;4917171;29;20459;-74
2022/05/12 05:54:57;;;;;;;13.50;2.60;;;17.90;67.10;;;;;;4890638;29;20148;-75
2022/05/12 05:57:31;;;;;;;11.77;2.28;;;17.80;67.80;;;;;;4905566;29;20123;-73
2022/05/12 05:59:59;;;;;;;17.40;2.88;;;17.80;68.50;;;;;;4919677;29;20282;-74
2022/05/12 06:02:25;;;;;;;9.75;2.00;;;17.90;68.40;;;;;;4919559;29;20048;-74
2022/05/12 06:04:51;;;;;;;8.20;1.77;;;17.90;68.00;;;;;;4920174;29;20070;-73
2022/05/12 06:07:17;;;;;;;14.35;2.13;;;17.90;67.80;;;;;;4919593;29;20432;-77
2022/05/12 06:09:43;;;;;;;8.48;1.42;;;17.90;67.30;;;;;;4917535;29;20083;-79
2022/05/12 06:12:10;;;;;;;23.30;3.08;;;17.90;67.20;;;;;;4920011;29;20066;-77
2022/05/12 06:14:38;;;;;;;14.88;2.88;;;18.00;67.40;;;;;;4920033;29;20052;-77
2022/05/12 06:17:04;;;;;;;20.90;2.65;;;18.00;67.70;;;;;;4919353;29;20055;-78
2022/05/12 06:19:30;;;;;;;13.85;2.00;;;18.10;67.30;;;;;;4918725;29;20048;-77
2022/05/12 06:21:55;;;;;;;11.73;1.83;;;18.10;66.70;;;;;;4919647;29;20126;-76
2022/05/12 06:24:21;;;;;;;16.73;2.38;;;18.10;66.40;;;;;;4919701;29;20063;-77
2022/05/12 06:26:47;;;;;;;12.00;1.73;;;18.10;66.30;;;;;;4919428;29;20048;-77
2022/05/12 06:29:12;;;;;;;14.95;2.40;;;18.10;66.10;;;;;;4919478;29;20048;-78
2022/05/12 06:31:41;;;;;;;7.72;1.70;;;18.10;66.00;;;;;;4918616;29;20083;-77
2022/05/12 06:34:06;;;;;;;13.88;2.20;;;18.10;65.90;;;;;;4918610;29;20052;-78
2022/05/12 06:36:32;;;;;;;13.80;2.65;;;18.10;66.00;;;;;;4919238;29;20052;-77
2022/05/12 06:38:58;;;;;;;10.63;2.42;;;18.10;65.90;;;;;;4919442;29;20063;-76
2022/05/12 06:41:26;;;;;;;13.02;1.95;;;18.20;65.70;;;;;;4902401;29;20040;-81
2022/05/12 06:43:52;;;;;;;14.18;1.90;;;18.20;65.90;;;;;;4919736;29;20087;-77
2022/05/12 06:46:19;;;;;;;15.95;3.45;;;18.20;66.40;;;;;;4902817;29;20111;-76
2022/05/12 06:48:47;;;;;;;11.60;2.25;;;18.30;67.30;;;;;;4919031;29;20051;-76
2022/05/12 06:51:13;;;;;;;13.27;1.90;;;18.30;67.70;;;;;;4920465;29;20044;-74
2022/05/12 06:53:40;;;;;;;10.30;1.77;;;18.40;66.90;;;;;;4937907;29;20047;-78
2022/05/12 06:56:07;;;;;;;6.53;1.48;;;18.40;66.30;;;;;;4938028;29;20063;-78
2022/05/12 06:58:33;;;;;;;8.50;1.55;;;18.40;66.40;;;;;;4937955;29;20056;-79
2022/05/12 07:01:00;;;;;;;9.50;1.73;;;18.50;66.50;;;;;;4919305;29;20102;-77
2022/05/12 07:03:26;;;;;;;12.18;2.13;;;18.50;66.60;;;;;;4921407;29;20056;-80
2022/05/12 07:05:52;;;;;;;10.32;1.42;;;18.50;66.60;;;;;;4934643;29;20051;-78
2022/05/12 07:08:18;;;;;;;10.40;1.38;;;18.50;66.60;;;;;;4937337;29;20083;-77
2022/05/12 07:10:44;;;;;;;10.75;1.90;;;18.50;66.60;;;;;;4937979;29;20118;-77
2022/05/12 07:13:09;;;;;;;7.57;1.55;;;18.60;66.60;;;;;;4930603;29;20433;-78
2022/05/12 07:15:36;;;;;;;7.93;1.95;;;18.60;66.50;;;;;;4918925;29;20052;-77
2022/05/12 07:18:01;;;;;;;5.25;1.33;;;18.60;66.60;;;;;;4918866;29;20044;-78
2022/05/12 07:28:43;;;;;;;8.65;1.83;;;18.60;66.50;;;;;;4901823;29;20135;-77
2022/05/12 07:31:09;;;;;;;4.05;1.02;;;18.60;66.40;;;;;;4930340;29;20408;-78
2022/05/12 07:33:46;;;;;;;5.88;1.40;;;18.70;66.50;;;;;;4937541;29;20348;-77
2022/05/12 07:36:27;;;;;;;8.57;1.73;;;18.70;66.70;;;;;;4938133;29;20384;-77
2022/05/12 07:38:55;;;;;;;4.30;1.17;;;18.70;66.60;;;;;;4905293;29;20047;-78
2022/05/12 07:41:22;;;;;;;4.95;1.00;;;18.70;66.40;;;;;;4937620;29;20503;-77
2022/05/12 07:43:48;;;;;;;4.95;1.20;;;18.70;66.40;;;;;;4937763;29;20066;-79
2022/05/12 07:46:17;;;;;;;5.15;1.25;;;18.80;66.50;;;;;;4937790;29;20051;-78
2022/05/12 07:48:43;;;;;;;5.85;1.33;;;18.70;67.00;;;;;;4920647;29;20441;-76
2022/05/12 07:51:10;;;;;;;6.22;1.13;;;18.70;66.40;;;;;;4936891;29;20058;-79
2022/05/12 07:53:37;;;;;;;6.85;1.30;;;18.80;66.40;;;;;;4941246;29;20066;-77
2022/05/12 07:56:03;;;;;;;6.90;1.23;;;18.80;66.30;;;;;;4924320;29;20040;-77
2022/05/12 07:58:30;;;;;;;4.07;1.08;;;18.80;66.20;;;;;;4941374;29;20055;-76
2022/05/12 08:00:57;;;;;;;5.90;1.10;;;18.80;66.10;;;;;;4941406;29;20353;-79
2022/05/12 08:03:24;;;;;;;4.95;1.40;;;18.80;66.00;;;;;;4903587;29;20414;-77
2022/05/12 08:05:50;;;;;;;7.50;1.50;;;18.80;66.00;;;;;;4903044;29;20370;-77
2022/05/12 08:08:16;;;;;;;6.47;1.02;;;18.90;66.30;;;;;;4911812;29;20104;-77
2022/05/12 08:10:42;;;;;;;5.55;1.17;;;18.90;66.20;;;;;;4931283;29;20056;-77
2022/05/12 08:13:14;;;;;;;5.60;1.27;;;18.90;66.00;;;;;;4927064;29;20056;-76
2022/05/12 08:15:42;;;;;;;5.28;1.25;;;18.90;66.20;;;;;;4927626;29;20051;-76
2022/05/12 08:18:08;;;;;;;5.25;1.08;;;18.90;66.20;;;;;;4921687;29;20088;-78
2022/05/12 08:20:34;;;;;;;4.72;1.05;;;18.90;66.00;;;;;;4922023;29;20357;-76
2022/05/12 08:23:00;;;;;;;8.77;1.60;;;18.90;64.00;;;;;;4905133;29;20059;-77
2022/05/12 08:25:29;;;;;;;3.88;1.00;;;18.80;64.00;;;;;;4921481;29;20051;-77
2022/05/12 08:27:55;;;;;;;6.03;1.88;;;18.80;63.80;;;;;;4904749;29;20449;-77
2022/05/12 08:30:21;;;;;;;5.50;1.10;;;18.70;63.80;;;;;;4905180;29;20373;-78
2022/05/12 08:32:47;;;;;;;5.63;1.05;;;18.70;64.00;;;;;;4921869;29;20059;-76
2022/05/12 08:35:13;;;;;;;5.47;1.25;;;18.70;63.70;;;;;;4921683;29;20146;-77
2022/05/12 08:37:39;;;;;;;4.25;1.08;;;18.70;64.20;;;;;;4911349;29;20396;-78
2022/05/12 08:40:07;;;;;;;6.85;1.10;;;18.70;64.00;;;;;;4940725;29;20056;-75
2022/05/12 08:42:42;;;;;;;3.67;0.90;;;18.70;63.90;;;;;;4940429;29;20441;-79
2022/05/12 08:45:12;;;;;;;5.10;0.90;;;18.70;63.90;;;;;;4940259;29;20134;-79
2022/05/12 08:47:50;;;;;;;5.93;0.85;;;18.70;64.00;;;;;;4940062;29;20369;-79
2022/05/12 08:50:27;;;;;;;4.22;0.98;;;18.70;63.40;;;;;;4930440;29;20056;-78
2022/05/12 08:53:01;;;;;;;3.92;0.95;;;18.70;63.80;;;;;;4920862;29;20052;-76
2022/05/12 08:55:42;;;;;;;6.20;1.33;;;18.70;63.70;;;;;;4921097;29;20047;-77
2022/05/12 08:58:16;;;;;;;4.05;0.90;;;18.70;63.40;;;;;;4904550;29;20056;-77
2022/05/12 09:01:00;;;;;;;6.38;1.35;;;18.70;63.80;;;;;;4920905;29;20385;-79
2022/05/12 09:03:29;;;;;;;5.82;1.88;;;18.70;63.30;;;;;;4918833;29;20092;-76
2022/05/12 09:06:11;;;;;;;3.67;0.95;;;18.70;63.50;;;;;;4918503;29;20052;-78
2022/05/12 09:08:41;;;;;;;8.90;1.75;;;18.70;62.30;;;;;;4919628;29;20427;-78
2022/05/12 09:11:32;;;;;;;4.78;1.23;;;18.70;63.30;;;;;;4921010;29;20136;-77
2022/05/12 09:14:00;;;;;;;6.75;1.33;;;18.70;61.80;;;;;;4920369;29;20461;-78
2022/05/12 09:16:30;;;;;;;6.53;1.20;;;18.70;63.60;;;;;;4920995;29;20135;-76
2022/05/12 09:18:57;;;;;;;8.20;1.70;;;18.70;63.00;;;;;;4920721;29;20044;-78
2022/05/12 09:21:37;;;;;;;10.73;1.17;;;18.70;60.90;;;;;;4920303;29;20045;-81
2022/05/12 09:24:04;;;;;;;5.10;1.23;;;18.70;61.20;;;;;;4903520;29;20048;-79
2022/05/12 09:29:53;;;;;;;5.20;0.93;;;18.70;61.20;;;;;;4886024;29;20057;-82
2022/05/12 09:32:24;;;;;;;6.68;1.00;;;18.80;60.20;;;;;;4919510;29;20058;-76
2022/05/12 09:35:18;;;;;;;5.57;1.10;;;18.90;56.40;;;;;;4920501;29;20055;-76
2022/05/12 09:37:43;;;;;;;4.65;1.52;;;18.80;58.60;;;;;;4920776;29;20047;-70
2022/05/12 09:40:31;;;;;;;10.02;1.08;;;18.80;59.50;;;;;;4919938;29;20480;-72
2022/05/12 09:43:00;;;;;;;6.63;0.95;;;18.80;60.00;;;;;;4919931;29;20051;-72
2022/05/12 09:45:36;;;;;;;9.77;1.73;;;18.70;59.90;;;;;;4920306;29;20041;-72
2022/05/12 09:48:19;;;;;;;9.68;1.55;;;18.80;60.00;;;;;;4920345;29;20413;-71
2022/05/12 09:50:46;;;;;;;8.43;1.08;;;18.80;60.30;;;;;;4903835;29;20123;-73
2022/05/12 09:53:13;;;;;;;5.25;0.90;;;18.80;58.70;;;;;;4920334;29;20064;-73
2022/05/12 09:56:01;;;;;;;10.40;0.95;;;18.80;59.20;;;;;;4920261;29;20174;-72
2022/05/12 09:58:35;;;;;;;4.95;0.90;;;18.80;59.30;;;;;;4918743;29;20131;-72
2022/05/12 10:01:20;;;;;;;3.28;0.50;;;18.80;60.10;;;;;;4919269;29;20111;-73
2022/05/12 10:09:32;;;;;;;3.17;1.00;;;18.70;60.40;;;;;;4920143;29;20060;-73
2022/05/12 10:12:19;;;;;;;4.75;0.70;;;18.70;60.20;;;;;;4903647;29;20052;-72
2022/05/12 10:15:11;;;;;;;4.47;0.80;;;18.70;60.00;;;;;;4919598;29;20413;-73
2022/05/12 10:17:42;;;;;;;4.43;0.95;;;18.70;60.50;;;;;;4919783;29;20052;-73
2022/05/12 10:20:10;;;;;;;2.90;0.90;;;18.80;60.50;;;;;;4919686;29;20066;-72
2022/05/12 10:23:11;;;;;;;6.50;1.05;;;18.70;60.60;;;;;;4919415;29;20048;-73
2022/05/12 10:25:59;;;;;;;5.82;1.05;;;18.80;60.50;;;;;;4919441;29;20052;-72
2022/05/12 10:28:36;;;;;;;3.88;0.65;;;18.70;60.40;;;;;;4919725;29;20424;-73
2022/05/12 10:31:42;;;;;;;5.30;1.08;;;18.80;60.20;;;;;;4919296;29;20044;-72
2022/05/12 10:34:35;;;;;;;2.50;0.47;;;18.80;60.30;;;;;;4909791;29;20063;-73
2022/05/12 10:37:25;;;;;;;4.22;0.68;;;18.70;60.50;;;;;;4920190;29;20067;-72
2022/05/12 10:40:26;;;;;;;1.90;0.52;;;18.80;60.40;;;;;;4919426;29;20052;-73
2022/05/12 10:43:19;;;;;;;5.07;0.52;;;18.80;60.40;;;;;;4919274;29;20063;-73
2022/05/12 10:46:05;;;;;;;3.03;1.10;;;18.80;60.50;;;;;;4918433;29;20190;-73
2022/05/12 10:48:53;;;;;;;2.60;0.80;;;18.80;60.20;;;;;;4912961;29;20063;-72
2022/05/12 10:51:33;;;;;;;3.67;0.52;;;18.80;59.90;;;;;;4918688;29;20104;-72
2022/05/12 10:54:25;;;;;;;2.47;0.63;;;18.80;60.40;;;;;;4919054;29;20130;-73
2022/05/12 10:56:57;;;;;;;3.55;0.75;;;18.80;60.50;;;;;;4918942;29;20059;-73
2022/05/12 10:59:37;;;;;;;3.92;0.52;;;18.80;60.60;;;;;;4919122;29;20048;-73
2022/05/12 11:02:38;;;;;;;2.25;0.38;;;18.80;60.70;;;;;;4919175;29;20433;-72
2022/05/12 11:05:30;;;;;;;1.52;0.60;;;18.80;60.00;;;;;;4918567;29;20477;-73
2022/05/12 11:08:02;;;;;;;2.63;0.60;;;18.80;60.40;;;;;;4906542;29;20067;-72
2022/05/12 11:10:44;;;;;;;3.20;0.57;;;18.80;60.60;;;;;;4918805;29;20064;-71
2022/05/12 11:13:19;;;;;;;1.35;0.35;;;18.80;60.70;;;;;;4917516;29;20044;-73
2022/05/12 11:16:14;;;;;;;2.38;0.82;;;18.80;60.20;;;;;;4915609;29;20507;-73
2022/05/12 11:18:43;;;;;;;2.92;0.70;;;18.80;59.80;;;;;;4909647;29;20056;-72
2022/05/12 11:21:19;;;;;;;3.85;0.82;;;18.80;60.60;;;;;;4918343;29;20039;-72
2022/05/12 11:23:59;;;;;;;3.03;0.77;;;18.80;60.50;;;;;;4918686;29;20515;-73
2022/05/12 11:26:51;;;;;;;1.30;0.45;;;18.80;60.00;;;;;;4918217;29;20095;-72
2022/05/12 11:29:43;;;;;;;2.83;0.57;;;18.80;60.50;;;;;;4874673;29;20063;-72
2022/05/12 11:32:40;;;;;;;3.35;0.50;;;18.80;60.90;;;;;;4918633;29;20111;-73
2022/05/12 11:35:44;;;;;;;3.53;0.47;;;18.80;60.00;;;;;;4918756;29;20062;-72
2022/05/12 11:38:30;;;;;;;;;;;18.80;59.50;;;;;;4919236;29;20059;-72
2022/05/12 11:40:56;;;;;;;1.27;0.35;;;18.80;59.60;;;;;;4918320;29;20295;-73
2022/05/12 11:46:55;;;;;;;3.70;0.80;;;18.80;60.00;;;;;;4916395;29;20127;-79
2022/05/12 11:49:42;;;;;;;3.58;0.73;;;18.80;57.10;;;;;;4908362;29;20048;-73
2022/05/12 11:52:33;;;;;;;4.05;0.88;;;18.80;57.50;;;;;;4918241;29;20087;-74
2022/05/12 11:55:18;;;;;;;6.18;1.17;;;18.80;58.10;;;;;;4918191;29;20044;-73
2022/05/12 11:57:55;;;;;;;7.07;1.25;;;18.80;58.40;;;;;;4918401;29;20055;-73
2022/05/12 12:00:35;;;;;;;8.90;1.50;;;18.90;59.20;;;;;;4919078;29;20083;-73
2022/05/12 12:03:19;;;;;;;14.85;1.35;;;18.90;59.40;;;;;;4917788;29;20338;-73
2022/05/12 12:05:48;;;;;;;;;;;18.90;58.50;;;;;;4918958;29;20055;-72
2022/05/12 12:08:32;;;;;;;4.95;1.00;;;18.90;58.70;;;;;;4901812;29;19977;-72
2022/05/12 12:11:13;;;;;;;6.18;0.88;;;18.90;58.90;;;;;;4918163;29;20048;-74
2022/05/12 12:13:42;;;;;;;4.60;0.80;;;18.90;59.20;;;;;;4918237;29;20048;-72
2022/05/12 12:16:15;;;;;;;7.65;1.05;;;18.90;59.00;;;;;;4915408;29;20056;-72
2022/05/12 12:18:41;;;;;;;6.30;0.82;;;18.90;59.10;;;;;;4918690;29;20338;-75
2022/05/12 12:21:25;;;;;;;5.32;0.93;;;18.90;59.20;;;;;;4917322;29;20056;-72
2022/05/12 12:24:06;;;;;;;5.97;1.00;;;18.90;58.80;;;;;;4918057;29;20083;-73
2022/05/12 15:41:53;;;;;;;6.60;1.27;;;19.30;57.20;;;;;;5615072;23;20049;-68
2022/05/12 15:44:20;;;;;;;8.40;1.30;;;19.30;56.50;;;;;;4883290;29;20060;-69
2022/05/12 15:46:49;;;;;;;5.47;1.58;;;19.30;56.50;;;;;;4897768;29;20108;-68
2022/05/12 15:49:20;;;;;;;7.13;1.23;;;19.30;56.10;;;;;;4899424;29;20449;-70
2022/05/12 15:51:46;;;;;;;3.92;0.93;;;19.30;56.10;;;;;;4899696;29;20057;-69
2022/05/12 15:54:12;;;;;;;11.25;1.42;;;19.30;56.40;;;;;;4899482;29;20127;-69
2022/05/12 15:56:38;;;;;;;4.70;0.85;;;19.30;56.50;;;;;;4899858;29;20418;-69
2022/05/12 15:59:03;;;;;;;5.68;0.80;;;19.30;56.10;;;;;;4883095;29;20135;-70
2022/05/12 16:01:29;;;;;;;8.88;1.30;;;19.30;56.30;;;;;;4899243;29;20123;-69
2022/05/12 16:03:55;;;;;;;5.10;0.80;;;19.30;55.80;;;;;;4899302;29;20084;-70
2022/05/12 16:06:21;;;;;;;7.60;1.25;;;19.30;55.40;;;;;;4899001;29;20053;-69
2022/05/12 16:08:48;;;;;;;9.68;0.93;;;19.30;55.50;;;;;;4898587;29;20136;-70
2022/05/12 16:11:18;;;;;;;8.15;0.88;;;19.30;56.30;;;;;;4898709;29;20059;-70
2022/05/12 16:13:44;;;;;;;7.35;1.48;;;19.30;56.90;;;;;;4902855;29;20151;-71
2022/05/12 16:16:14;;;;;;;5.88;0.80;;;19.30;57.30;;;;;;4903380;29;20088;-71
2022/05/12 16:18:42;;;;;;;6.18;1.50;;;19.30;57.80;;;;;;4902119;29;20052;-69
2022/05/12 16:21:08;;;;;;;8.25;1.13;;;19.30;58.20;;;;;;4900020;29;20092;-70
2022/05/12 16:23:34;;;;;;;7.80;0.90;;;19.30;58.60;;;;;;4903660;29;20045;-70
2022/05/12 16:26:04;;;;;;;9.15;1.55;;;19.30;59.00;;;;;;4903053;29;20454;-70
2022/05/12 16:28:35;;;;;;;8.82;1.17;;;19.40;59.30;;;;;;4902362;29;20144;-75
2022/05/12 16:31:01;;;;;;;8.60;1.48;;;19.40;59.50;;;;;;4902960;29;20128;-71
2022/05/12 16:33:27;;;;;;;20.60;2.53;;;19.40;59.50;;;;;;4902875;29;20487;-72
2022/05/12 16:35:53;;;;;;;8.90;1.10;;;19.40;60.10;;;;;;4902173;29;20157;-69
2022/05/12 16:38:19;;;;;;;23.15;2.58;;;19.40;59.60;;;;;;4902850;29;20184;-70
2022/05/12 16:40:45;;;;;;;14.38;1.35;;;19.50;59.60;;;;;;4902659;29;20060;-70
2022/05/12 16:43:10;;;;;;;15.38;1.58;;;19.50;60.30;;;;;;4902111;29;20143;-70
2022/05/12 16:45:39;;;;;;;10.30;1.35;;;19.50;59.60;;;;;;4902398;29;20056;-70
2022/05/12 16:48:07;;;;;;;9.57;1.38;;;19.50;59.10;;;;;;4902547;29;20045;-70
2022/05/12 16:50:33;;;;;;;14.57;1.90;;;19.50;59.30;;;;;;4899803;29;20377;-72
2022/05/12 16:53:01;;;;;;;6.55;1.45;;;19.50;59.40;;;;;;4886210;29;20056;-71
2022/05/12 16:55:29;;;;;;;11.73;1.60;;;19.50;59.00;;;;;;4885759;29;20140;-74
2022/05/12 16:57:55;;;;;;;13.77;1.52;;;19.50;59.40;;;;;;4902110;29;20063;-72
2022/05/12 17:00:23;;;;;;;16.58;2.40;;;19.50;59.80;;;;;;4899280;29;20338;-76
2022/05/12 17:02:49;;;;;;;26.65;3.00;;;19.60;61.00;;;;;;4885749;29;20057;-71
2022/05/12 17:05:16;;;;;;;17.83;1.92;;;19.60;62.00;;;;;;4902194;29;20059;-71
2022/05/12 17:07:41;;;;;;;19.80;3.05;;;19.60;61.50;;;;;;4902314;29;20057;-71
2022/05/12 17:10:07;;;;;;;9.48;1.67;;;19.70;61.90;;;;;;4901486;29;20053;-70
2022/05/12 17:12:33;;;;;;;13.30;1.70;;;19.70;60.90;;;;;;4901239;29;20048;-71
2022/05/12 17:15:00;;;;;;;18.40;2.05;;;19.80;61.40;;;;;;4902128;29;20059;-71
2022/05/12 17:17:28;;;;;;;20.20;1.88;;;19.80;61.30;;;;;;4901959;29;20041;-71
2022/05/12 17:19:54;;;;;;;12.88;1.70;;;19.80;61.60;;;;;;4901609;29;20374;-70
2022/05/12 17:22:19;;;;;;;22.38;2.30;;;19.80;61.70;;;;;;4902054;29;20458;-70
2022/05/12 17:24:45;;;;;;;16.60;2.38;;;19.80;61.70;;;;;;4900994;29;20194;-70
2022/05/12 17:27:14;;;;;;;14.50;1.75;;;19.80;61.40;;;;;;4901855;29;20052;-69
2022/05/12 17:29:44;;;;;;;17.95;3.00;;;19.70;61.10;;;;;;4901517;29;20092;-70
2022/05/12 17:32:11;;;;;;;15.93;2.30;;;19.80;61.60;;;;;;4901803;29;20107;-71
2022/05/12 17:34:37;;;;;;;14.20;1.88;;;19.80;60.70;;;;;;4901955;29;20056;-71
2022/05/12 17:37:05;;;;;;;13.75;2.33;;;19.70;60.50;;;;;;4902342;29;20464;-69
2022/05/12 17:39:32;;;;;;;12.88;2.20;;;19.70;60.20;;;;;;4901716;29;20048;-74
2022/05/12 17:41:58;;;;;;;13.07;2.00;;;19.70;59.90;;;;;;4893870;29;20051;-70
2022/05/12 17:44:24;;;;;;;14.40;2.25;;;19.70;60.00;;;;;;4901208;29;20060;-70
2022/05/12 17:46:51;;;;;;;12.68;1.88;;;19.70;59.50;;;;;;4901278;29;20049;-68
2022/05/12 17:49:17;;;;;;;12.20;2.35;;;19.70;59.50;;;;;;4900860;29;20065;-67
2022/05/12 17:51:43;;;;;;;11.40;1.98;;;19.60;59.40;;;;;;4901601;29;20155;-68
2022/05/12 17:54:09;;;;;;;6.63;1.48;;;19.60;59.50;;;;;;4900877;29;20457;-70
2022/05/12 17:56:35;;;;;;;9.27;1.75;;;19.60;59.80;;;;;;4901235;29;20085;-70
2022/05/12 17:59:01;;;;;;;9.63;1.73;;;19.60;60.00;;;;;;4901784;29;20504;-70
2022/05/12 18:01:27;;;;;;;8.68;1.60;;;19.60;59.40;;;;;;4884677;29;20067;-70
2022/05/12 18:03:52;;;;;;;8.05;1.42;;;19.50;58.80;;;;;;4901038;29;20052;-70
2022/05/12 18:06:22;;;;;;;10.18;1.38;;;19.50;58.80;;;;;;4900627;29;20063;-70
2022/05/12 18:08:50;;;;;;;9.77;1.38;;;19.50;59.00;;;;;;4898560;29;20052;-68
2022/05/12 18:11:20;;;;;;;9.13;1.63;;;19.50;59.30;;;;;;4900701;29;20411;-69
2022/05/12 18:13:47;;;;;;;10.32;1.77;;;19.50;59.10;;;;;;4900422;29;20525;-69
2022/05/12 18:16:13;;;;;;;12.27;1.60;;;19.40;58.60;;;;;;4900431;29;20512;-69
2022/05/12 18:18:40;;;;;;;7.70;1.48;;;19.40;58.70;;;;;;4896989;29;20052;-69
2022/05/12 18:21:05;;;;;;;8.32;1.50;;;19.40;58.50;;;;;;4900546;29;20052;-70
2022/05/12 18:23:32;;;;;;;5.43;1.30;;;19.40;58.70;;;;;;4900108;29;20066;-69
2022/05/12 18:25:58;;;;;;;7.88;1.55;;;19.30;58.50;;;;;;4900471;29;20048;-69
2022/05/12 18:28:25;;;;;;;7.55;1.08;;;19.30;58.40;;;;;;4900254;29;20472;-69
2022/05/12 18:30:51;;;;;;;8.18;1.33;;;19.30;58.50;;;;;;4900627;29;20123;-69
2022/05/12 18:33:17;;;;;;;6.38;0.88;;;19.30;58.70;;;;;;4900417;29;20058;-68
2022/05/12 18:35:43;;;;;;;4.07;1.10;;;19.20;58.70;;;;;;4900123;29;20124;-69
2022/05/12 18:38:21;;;;;;;6.88;1.25;;;19.20;58.60;;;;;;4900593;29;20052;-68
2022/05/12 18:40:48;;;;;;;6.90;1.05;;;19.20;58.60;;;;;;4900006;29;20127;-69
2022/05/12 18:43:17;;;;;;;4.90;0.70;;;19.10;59.00;;;;;;4900361;29;20152;-69
2022/05/12 18:45:44;;;;;;;6.78;1.73;;;19.10;59.10;;;;;;4900086;29;20064;-69
2022/05/12 18:48:10;;;;;;;6.72;1.73;;;19.10;59.10;;;;;;4899564;29;20044;-69
2022/05/12 18:50:36;;;;;;;5.65;1.10;;;19.10;59.20;;;;;;4885790;29;20068;-69
2022/05/12 18:53:03;;;;;;;5.90;1.42;;;19.10;59.30;;;;;;4896605;29;20048;-69
2022/05/12 18:55:28;;;;;;;7.72;1.10;;;19.10;59.40;;;;;;4898973;29;20045;-69
2022/05/12 18:57:54;;;;;;;6.03;1.08;;;19.00;59.50;;;;;;4900026;29;20054;-69
2022/05/12 19:00:23;;;;;;;6.80;0.98;;;19.00;59.50;;;;;;4892560;29;20529;-69
2022/05/12 19:02:50;;;;;;;6.10;1.30;;;19.00;59.70;;;;;;4896867;29;20104;-69
2022/05/12 19:05:18;;;;;;;5.22;1.00;;;19.00;59.50;;;;;;4899835;29;20453;-69
2022/05/12 19:07:45;;;;;;;7.82;1.85;;;19.00;59.50;;;;;;4884342;29;20442;-69
2022/05/12 19:10:13;;;;;;;5.70;1.90;;;18.90;59.50;;;;;;4900056;29;20466;-70
2022/05/12 19:12:39;;;;;;;5.47;1.35;;;18.90;59.80;;;;;;4900061;29;20118;-69
2022/05/12 19:15:12;;;;;;;4.75;1.20;;;18.90;60.00;;;;;;4899166;29;20091;-69
2022/05/12 19:17:44;;;;;;;4.97;1.38;;;18.80;60.00;;;;;;4899548;29;20063;-69
2022/05/12 19:20:11;;;;;;;5.03;1.20;;;18.80;60.00;;;;;;4898890;29;20072;-73
2022/05/12 19:22:37;;;;;;;5.47;1.50;;;18.80;60.20;;;;;;4883216;29;20056;-74
2022/05/12 19:25:04;;;;;;;10.75;1.48;;;18.80;60.40;;;;;;4900017;29;20052;-70
2022/05/12 19:27:31;;;;;;;5.13;1.02;;;18.90;60.40;;;;;;4899922;29;20053;-70
2022/05/12 19:29:57;;;;;;;5.80;1.17;;;18.90;60.50;;;;;;4900262;29;20060;-70
2022/05/12 19:32:23;;;;;;;8.13;1.50;;;18.90;60.50;;;;;;4899394;29;20048;-70
2022/05/12 19:34:49;;;;;;;5.65;1.20;;;19.00;60.50;;;;;;4898766;29;20049;-71
2022/05/12 19:37:15;;;;;;;5.78;1.60;;;19.00;60.70;;;;;;4899930;29;20088;-71
2022/05/12 19:39:41;;;;;;;6.50;1.20;;;19.00;60.70;;;;;;4899777;29;20052;-70
2022/05/12 19:42:06;;;;;;;5.55;1.23;;;18.90;60.60;;;;;;4880783;29;20485;-71
2022/05/12 19:44:34;;;;;;;8.52;1.75;;;18.90;60.70;;;;;;4898838;29;20056;-70
2022/05/12 19:47:00;;;;;;;6.95;1.50;;;19.00;60.90;;;;;;4899817;29;20060;-71
2022/05/12 19:49:26;;;;;;;4.55;1.30;;;18.90;60.90;;;;;;4903787;29;20045;-70
2022/05/12 19:51:52;;;;;;;4.18;1.00;;;18.90;61.10;;;;;;4903934;29;20079;-68
2022/05/12 19:54:18;;;;;;;5.10;1.30;;;18.90;61.20;;;;;;4888032;29;20143;-70
2022/05/12 19:56:44;;;;;;;6.55;1.23;;;18.90;61.80;;;;;;4903569;29;20120;-71
2022/05/12 19:59:10;;;;;;;8.65;1.27;;;18.90;61.80;;;;;;4903093;29;20473;-70
2022/05/12 20:01:37;;;;;;;4.30;1.05;;;19.00;62.20;;;;;;4902484;29;20052;-70
2022/05/12 20:04:03;;;;;;;8.80;0.93;;;19.00;62.10;;;;;;4903266;29;20052;-71
2022/05/12 20:06:30;;;;;;;6.65;1.30;;;19.00;63.00;;;;;;4903387;29;20052;-75
2022/05/12 20:08:56;;;;;;;7.82;1.17;;;19.00;63.50;;;;;;4901843;29;20123;-70
2022/05/12 20:11:24;;;;;;;3.97;1.30;;;19.10;64.00;;;;;;4903267;29;20057;-74
2022/05/12 20:13:50;;;;;;;8.85;1.45;;;19.00;63.40;;;;;;4903050;29;20108;-72
2022/05/12 20:16:16;;;;;;;3.85;1.27;;;19.10;62.90;;;;;;4902965;29;20144;-72
2022/05/12 20:18:45;;;;;;;3.85;1.35;;;19.10;63.00;;;;;;4902974;29;20443;-72
2022/05/12 20:21:13;;;;;;;4.53;1.75;;;19.10;63.20;;;;;;4898944;29;20076;-71
2022/05/12 20:23:40;;;;;;;6.55;1.90;;;19.00;62.50;;;;;;4900769;29;20120;-72
2022/05/12 20:26:06;;;;;;;7.82;1.80;;;19.00;62.40;;;;;;4902684;29;20087;-71
2022/05/12 20:28:33;;;;;;;7.03;1.15;;;18.90;62.40;;;;;;4896013;29;20128;-71
2022/05/12 20:30:59;;;;;;;12.73;2.30;;;18.90;62.60;;;;;;4873774;29;20060;-72
2022/05/12 20:33:24;;;;;;;5.15;1.55;;;18.90;62.80;;;;;;4882697;29;20063;-72